Time;durP1;ratioP1;P1;durP2;ratioP2;P2;SDS_P1;SDS_P2;PMS_P1;PMS_P2;Temp;Humidity;BMP_temperature;BMP_pressure;BME280_temperature;BME280_humidity;BME280_pressure;Samples;Min_cycle;Max_cycle;Signal;HPM_P1;HPM_P2
2022/11/16 00:00:32;;;;;;;1.67;1.50;;;20.10;51.80;;;;;;5038305;28;20037;-59
2022/11/16 00:03:02;;;;;;;1.92;1.42;;;20.10;51.80;;;;;;5055784;28;20128;-59
2022/11/16 00:05:28;;;;;;;1.88;1.60;;;20.10;51.90;;;;;;5055814;28;20037;-59
2022/11/16 00:07:54;;;;;;;2.38;1.60;;;20.10;51.90;;;;;;5055652;28;20179;-55
2022/11/16 00:10:19;;;;;;;1.55;1.30;;;20.10;51.90;;;;;;5055742;28;20040;-58
2022/11/16 00:12:45;;;;;;;2.08;1.73;;;20.10;51.90;;;;;;5038090;28;20036;-55
2022/11/16 00:15:11;;;;;;;2.78;1.30;;;20.10;51.90;;;;;;5055389;28;20117;-57
2022/11/16 00:17:37;;;;;;;2.67;1.30;;;20.00;51.90;;;;;;5054829;28;20461;-58
2022/11/16 00:20:03;;;;;;;2.25;1.60;;;20.00;51.90;;;;;;5037489;28;20037;-57
2022/11/16 00:22:28;;;;;;;2.65;1.70;;;20.10;52.00;;;;;;5037974;28;20114;-55
2022/11/16 00:24:54;;;;;;;2.30;1.73;;;20.00;51.90;;;;;;5055229;28;20116;-56
2022/11/16 00:27:20;;;;;;;1.42;1.30;;;20.00;52.00;;;;;;5055431;28;20037;-58
2022/11/16 00:29:46;;;;;;;1.80;1.48;;;20.10;52.70;;;;;;5037697;28;20119;-59
2022/11/16 00:32:11;;;;;;;1.80;1.58;;;20.10;52.00;;;;;;5037621;28;20032;-59
2022/11/16 00:34:38;;;;;;;1.50;1.40;;;20.10;52.10;;;;;;5054874;28;20032;-56
2022/11/16 00:37:04;;;;;;;1.90;1.50;;;20.10;52.10;;;;;;5055113;28;20025;-55
2022/11/16 00:39:30;;;;;;;3.05;1.73;;;20.00;52.00;;;;;;5037105;28;20051;-58
2022/11/16 00:41:56;;;;;;;1.90;1.48;;;20.10;52.10;;;;;;5037019;28;20075;-58
2022/11/16 00:44:22;;;;;;;3.42;1.50;;;20.10;52.10;;;;;;5038240;28;20033;-60
2022/11/16 00:46:48;;;;;;;1.83;1.40;;;20.00;52.10;;;;;;5037388;28;20029;-56
2022/11/16 00:49:14;;;;;;;3.47;1.80;;;20.10;52.20;;;;;;5020905;28;20033;-57
2022/11/16 00:51:40;;;;;;;2.00;1.30;;;20.10;52.20;;;;;;5037616;28;20017;-55
2022/11/16 00:54:07;;;;;;;2.25;1.92;;;20.00;52.20;;;;;;5037291;28;20440;-57
2022/11/16 00:56:36;;;;;;;3.13;1.88;;;20.10;52.30;;;;;;5021046;28;20035;-57
2022/11/16 00:59:03;;;;;;;3.00;1.50;;;20.10;52.30;;;;;;5037203;28;20043;-56
2022/11/16 01:01:28;;;;;;;2.33;1.52;;;20.00;52.20;;;;;;5054385;28;20044;-57
2022/11/16 01:03:54;;;;;;;2.65;1.63;;;20.10;52.30;;;;;;5054898;28;20520;-59
2022/11/16 01:06:22;;;;;;;2.58;1.60;;;20.10;52.30;;;;;;5037074;28;20036;-56
2022/11/16 01:08:48;;;;;;;2.17;1.58;;;20.10;52.30;;;;;;5021446;28;20056;-58
2022/11/16 01:14:02;;;;;;;2.28;1.77;;;20.10;52.40;;;;;;5054945;28;20036;-57
2022/11/16 01:16:28;;;;;;;1.83;1.48;;;20.00;52.30;;;;;;5033357;28;20053;-56
2022/11/16 01:18:54;;;;;;;1.88;1.60;;;20.10;52.40;;;;;;5033599;28;20120;-55
2022/11/16 01:21:21;;;;;;;2.35;1.45;;;20.10;52.50;;;;;;5034498;28;20120;-58
2022/11/16 01:23:47;;;;;;;2.28;1.70;;;20.00;52.40;;;;;;5033643;28;20046;-58
2022/11/16 01:26:13;;;;;;;1.92;1.50;;;20.00;52.50;;;;;;5034565;28;20025;-58
2022/11/16 01:28:41;;;;;;;2.35;1.63;;;20.00;52.50;;;;;;5033408;28;20063;-56
2022/11/16 01:31:08;;;;;;;2.20;1.75;;;20.00;52.50;;;;;;5033556;28;20080;-59
2022/11/16 01:33:36;;;;;;;2.40;1.67;;;20.00;52.50;;;;;;5033743;28;20029;-58
2022/11/16 01:36:02;;;;;;;1.80;1.52;;;20.00;52.50;;;;;;5033708;28;20096;-59
2022/11/16 01:38:28;;;;;;;2.42;1.60;;;20.00;52.50;;;;;;5033755;28;20033;-56
2022/11/16 01:40:54;;;;;;;3.03;1.83;;;20.00;52.50;;;;;;5033366;28;20041;-59
2022/11/16 01:43:24;;;;;;;2.45;1.80;;;20.10;52.60;;;;;;5033303;28;20033;-59
2022/11/16 01:45:54;;;;;;;2.17;1.70;;;20.00;52.50;;;;;;5033561;28;20035;-57
2022/11/16 01:48:25;;;;;;;2.92;1.80;;;20.00;52.60;;;;;;5034026;28;20474;-58
2022/11/16 01:50:52;;;;;;;1.80;1.40;;;20.00;52.50;;;;;;5017342;28;20364;-56
2022/11/16 01:53:18;;;;;;;1.52;1.30;;;20.00;52.50;;;;;;5033660;28;20029;-57
2022/11/16 01:55:49;;;;;;;2.28;1.77;;;20.00;52.50;;;;;;5036139;28;20041;-56
2022/11/16 01:58:51;;;;;;;2.00;1.30;;;20.00;52.50;;;;;;4996986;28;20072;-59
2022/11/16 02:01:24;;;;;;;2.45;1.55;;;20.00;52.50;;;;;;5027952;28;20084;-58
2022/11/16 02:03:54;;;;;;;2.53;1.63;;;20.00;52.50;;;;;;5037262;28;20025;-58
2022/11/16 02:06:31;;;;;;;1.90;1.15;;;20.00;52.50;;;;;;5036959;28;20475;-58
2022/11/16 02:09:54;;;;;;;2.63;1.30;;;20.00;52.60;;;;;;5037299;28;20425;-59
2022/11/16 02:12:58;;;;;;;1.55;1.30;;;20.00;52.50;;;;;;5036983;28;20029;-57
2022/11/16 02:15:45;;;;;;;;;;;20.00;52.50;;;;;;5037295;28;20116;-57
2022/11/16 02:18:34;;;;;;;1.38;1.10;;;20.00;52.60;;;;;;5036882;28;19917;-58
2022/11/16 02:21:35;;;;;;;1.42;1.27;;;20.00;52.60;;;;;;5036828;28;20048;-57
2022/11/16 02:24:26;;;;;;;1.67;1.50;;;20.00;52.60;;;;;;4996378;28;20049;-57
2022/11/16 02:27:04;;;;;;;2.10;1.50;;;20.00;52.70;;;;;;5036798;28;20033;-57
2022/11/16 02:29:50;;;;;;;2.20;1.38;;;20.00;52.70;;;;;;5036540;28;20524;-58
2022/11/16 02:32:33;;;;;;;1.80;1.48;;;20.00;52.70;;;;;;5037689;28;20437;-58
2022/11/16 02:35:15;;;;;;;1.45;1.30;;;20.00;52.70;;;;;;5036750;28;20132;-58
2022/11/16 02:37:53;;;;;;;1.95;1.33;;;20.00;52.70;;;;;;5036179;28;20029;-59
2022/11/16 02:40:22;;;;;;;1.95;1.50;;;20.00;52.70;;;;;;5036546;28;20041;-57
2022/11/16 02:43:02;;;;;;;1.75;1.25;;;20.00;52.70;;;;;;5036503;28;20128;-57
2022/11/16 02:45:32;;;;;;;1.98;1.50;;;20.00;52.70;;;;;;5036599;28;20037;-57
2022/11/16 02:48:07;;;;;;;1.20;0.95;;;20.00;52.70;;;;;;5020142;28;20057;-57
2022/11/16 02:50:35;;;;;;;1.27;1.10;;;20.00;52.70;;;;;;5036317;28;20040;-56
2022/11/16 02:53:02;;;;;;;1.30;1.02;;;20.00;52.70;;;;;;5037523;28;20451;-59
2022/11/16 02:55:34;;;;;;;1.58;1.25;;;20.00;52.70;;;;;;5035826;28;20041;-58
2022/11/16 02:58:02;;;;;;;1.30;1.20;;;20.00;52.70;;;;;;5020431;28;20389;-59
2022/11/16 03:00:42;;;;;;;1.77;1.30;;;20.00;52.70;;;;;;5036702;28;20037;-59
2022/11/16 03:03:28;;;;;;;1.25;1.02;;;20.00;52.70;;;;;;5036692;28;20349;-59
2022/11/16 03:05:57;;;;;;;;;;;20.00;52.90;;;;;;5036226;28;20037;-55
2022/11/16 03:08:27;;;;;;;1.50;1.30;;;20.00;52.70;;;;;;5019373;28;20009;-56
2022/11/16 03:13:45;;;;;;;2.10;1.30;;;20.00;52.60;;;;;;5036436;28;20457;-59
2022/11/16 03:16:25;;;;;;;1.30;1.10;;;20.00;52.70;;;;;;5041546;28;20429;-57
2022/11/16 03:18:54;;;;;;;1.45;1.10;;;20.00;52.70;;;;;;5038637;28;20122;-59
2022/11/16 03:21:36;;;;;;;1.90;1.20;;;20.00;52.70;;;;;;5038915;28;20029;-57
2022/11/16 03:24:03;;;;;;;1.35;1.00;;;20.00;52.70;;;;;;5038628;28;20035;-59
2022/11/16 03:26:38;;;;;;;1.70;1.02;;;20.00;52.70;;;;;;5038999;28;20116;-59
2022/11/16 03:29:29;;;;;;;1.30;0.88;;;20.00;52.70;;;;;;5038549;28;20039;-60
2022/11/16 03:32:39;;;;;;;2.00;1.30;;;20.00;52.70;;;;;;5038655;28;20115;-56
2022/11/16 03:35:41;;;;;;;1.50;1.30;;;20.00;52.70;;;;;;5029121;28;20052;-58
2022/11/16 03:38:09;;;;;;;1.67;1.13;;;20.00;52.70;;;;;;5038787;28;20460;-59
2022/11/16 03:40:38;;;;;;;2.00;1.33;;;20.00;52.70;;;;;;5038836;28;20045;-59
2022/11/16 03:43:06;;;;;;;1.92;1.40;;;20.00;52.70;;;;;;5038785;28;20028;-58
2022/11/16 03:45:34;;;;;;;1.58;1.30;;;20.00;52.80;;;;;;5022535;28;20501;-59
2022/11/16 03:48:00;;;;;;;1.85;1.38;;;20.00;52.80;;;;;;5056449;28;20083;-57
2022/11/16 03:50:26;;;;;;;1.60;1.30;;;20.00;52.80;;;;;;5038639;28;20102;-58
2022/11/16 03:52:52;;;;;;;1.85;1.27;;;20.00;52.80;;;;;;5038453;28;20411;-58
2022/11/16 03:55:18;;;;;;;1.25;1.10;;;20.00;52.80;;;;;;5038973;28;20033;-58
2022/11/16 03:57:44;;;;;;;2.53;1.30;;;20.00;52.80;;;;;;5038875;28;20032;-59
2022/11/16 04:00:11;;;;;;;2.20;1.60;;;20.00;52.90;;;;;;5038976;28;20349;-58
2022/11/16 04:02:41;;;;;;;2.38;1.50;;;20.00;52.90;;;;;;5038520;28;20345;-59
2022/11/16 04:24:40;;;;;;;2.65;1.35;;;20.00;53.00;;;;;;5038649;28;20102;-59
2022/11/16 04:29:57;;;;;;;1.38;1.20;;;20.00;53.00;;;;;;5037962;28;20037;-58
2022/11/16 04:37:55;;;;;;;1.42;0.98;;;20.00;53.10;;;;;;5037742;28;20456;-59
2022/11/16 04:40:28;;;;;;;1.35;0.85;;;20.00;53.10;;;;;;5022005;28;20090;-54
2022/11/16 04:42:57;;;;;;;1.63;1.20;;;20.00;53.10;;;;;;5037682;28;20329;-58
2022/11/16 04:48:10;;;;;;;1.30;1.17;;;20.00;53.20;;;;;;5037241;28;20036;-56
2022/11/16 04:50:37;;;;;;;1.63;0.88;;;19.90;53.10;;;;;;5037764;28;20037;-59
2022/11/16 04:53:03;;;;;;;1.23;1.00;;;20.00;53.20;;;;;;5037336;28;20024;-58
2022/11/16 04:55:34;;;;;;;1.25;1.15;;;20.00;53.20;;;;;;5037398;28;20029;-60
2022/11/16 04:58:01;;;;;;;1.35;0.93;;;20.00;53.20;;;;;;5037399;28;20047;-60
2022/11/16 05:00:28;;;;;;;2.10;1.08;;;20.00;53.10;;;;;;5021378;28;20040;-59
2022/11/16 05:02:54;;;;;;;1.25;0.90;;;20.00;53.20;;;;;;5037553;28;20102;-58
2022/11/16 05:05:20;;;;;;;0.93;0.80;;;20.00;53.10;;;;;;5037212;28;20099;-57
2022/11/16 05:07:47;;;;;;;0.65;0.50;;;20.00;53.00;;;;;;5037932;28;20425;-59
2022/11/16 05:10:19;;;;;;;1.88;0.90;;;20.00;52.80;;;;;;5037319;28;20091;-59
2022/11/16 05:12:46;;;;;;;1.02;0.52;;;20.00;52.60;;;;;;5037687;28;20029;-60
2022/11/16 05:15:12;;;;;;;1.30;0.60;;;20.00;52.50;;;;;;5036892;28;20033;-57
2022/11/16 05:17:38;;;;;;;1.58;0.80;;;20.00;52.30;;;;;;5033341;28;20068;-60
2022/11/16 05:22:59;;;;;;;1.10;0.60;;;20.00;52.10;;;;;;5033932;28;20460;-59
2022/11/16 05:25:29;;;;;;;0.82;0.50;;;20.00;52.00;;;;;;5033682;28;20045;-58
2022/11/16 05:27:57;;;;;;;0.60;0.45;;;20.00;51.90;;;;;;5017772;28;20061;-59
2022/11/16 05:30:22;;;;;;;1.50;0.60;;;20.00;51.90;;;;;;5037819;28;20079;-58
2022/11/16 05:32:48;;;;;;;1.52;0.60;;;20.00;51.80;;;;;;5038991;28;20033;-59
2022/11/16 05:35:19;;;;;;;0.98;0.63;;;20.00;52.30;;;;;;5021436;28;20037;-60
2022/11/16 05:37:46;;;;;;;1.27;0.73;;;20.00;51.60;;;;;;5038868;28;20059;-56
2022/11/16 05:40:12;;;;;;;1.55;0.70;;;20.00;51.60;;;;;;5037597;28;20049;-58
2022/11/16 05:42:48;;;;;;;1.38;0.50;;;20.00;51.50;;;;;;5037698;28;20113;-59
2022/11/16 05:45:13;;;;;;;0.90;0.57;;;20.00;51.40;;;;;;5037468;28;20120;-59
2022/11/16 05:47:39;;;;;;;0.50;0.50;;;20.00;51.40;;;;;;5037338;28;20042;-57
2022/11/16 05:50:06;;;;;;;1.08;0.60;;;20.00;51.30;;;;;;5037441;28;20045;-59
2022/11/16 05:52:37;;;;;;;0.85;0.40;;;20.00;51.30;;;;;;5037410;28;20030;-58
2022/11/16 05:55:07;;;;;;;1.00;0.50;;;20.00;51.20;;;;;;5037519;28;20064;-59
2022/11/16 05:57:39;;;;;;;1.00;0.50;;;20.00;51.20;;;;;;5037340;28;20475;-59
2022/11/16 06:00:05;;;;;;;1.92;0.85;;;20.00;51.20;;;;;;5037045;28;20045;-54
2022/11/16 06:02:40;;;;;;;1.00;0.52;;;20.00;51.20;;;;;;5037402;28;20041;-59
2022/11/16 06:05:08;;;;;;;1.10;0.60;;;20.00;51.20;;;;;;5037276;28;20075;-59
2022/11/16 06:07:34;;;;;;;0.80;0.60;;;20.00;51.10;;;;;;5036743;28;20084;-60
2022/11/16 06:10:00;;;;;;;0.93;0.60;;;20.00;51.10;;;;;;5037853;28;20061;-57
2022/11/16 06:12:26;;;;;;;1.20;0.70;;;20.00;51.20;;;;;;5037082;28;20037;-60
2022/11/16 06:14:52;;;;;;;2.25;0.73;;;20.00;51.20;;;;;;5037001;28;20399;-58
2022/11/16 06:17:18;;;;;;;1.00;0.70;;;20.00;51.30;;;;;;5020461;28;20080;-58
2022/11/16 06:19:44;;;;;;;1.67;0.80;;;20.00;51.30;;;;;;5036635;28;20457;-59
2022/11/16 06:22:10;;;;;;;0.95;0.70;;;20.00;51.40;;;;;;5036599;28;20048;-58
2022/11/16 06:24:36;;;;;;;0.95;0.80;;;20.00;51.40;;;;;;5037045;28;20345;-57
2022/11/16 06:27:02;;;;;;;1.05;0.80;;;20.00;51.40;;;;;;5036620;28;20559;-60
2022/11/16 06:29:28;;;;;;;1.20;0.73;;;20.00;51.30;;;;;;5020302;28;20032;-61
2022/11/16 06:31:54;;;;;;;1.75;0.88;;;20.00;51.30;;;;;;5037599;28;20035;-60
2022/11/16 06:34:20;;;;;;;1.35;0.50;;;20.00;51.30;;;;;;5036242;28;20447;-60
2022/11/16 06:36:46;;;;;;;2.03;0.80;;;20.00;51.20;;;;;;5036572;28;20441;-57
2022/11/16 06:39:12;;;;;;;1.00;0.50;;;19.90;51.10;;;;;;5036555;28;20444;-58
2022/11/16 06:41:39;;;;;;;1.35;0.80;;;19.90;51.10;;;;;;5019270;28;20042;-60
2022/11/16 06:44:06;;;;;;;1.00;0.80;;;20.00;51.10;;;;;;5036248;28;20029;-60
2022/11/16 06:46:36;;;;;;;0.98;0.60;;;20.00;51.00;;;;;;5035874;28;20029;-60
2022/11/16 06:49:02;;;;;;;1.73;0.70;;;20.00;50.90;;;;;;5036243;28;20029;-58
2022/11/16 06:51:28;;;;;;;1.55;0.55;;;20.00;50.90;;;;;;5036641;28;20412;-58
2022/11/16 06:53:54;;;;;;;1.23;0.68;;;19.90;50.80;;;;;;5036188;28;20542;-61
2022/11/16 06:56:20;;;;;;;1.08;0.77;;;20.00;50.80;;;;;;5036347;28;20357;-56
2022/11/16 06:58:51;;;;;;;1.40;0.68;;;20.00;50.80;;;;;;5035968;28;20029;-59
2022/11/16 07:01:17;;;;;;;1.88;0.85;;;20.00;50.80;;;;;;5036774;28;20051;-59
2022/11/16 07:03:45;;;;;;;1.17;0.60;;;20.00;50.70;;;;;;5036080;28;20045;-59
2022/11/16 07:06:12;;;;;;;1.00;0.60;;;20.00;50.60;;;;;;5019686;28;20030;-59
2022/11/16 07:08:41;;;;;;;1.33;0.60;;;20.00;50.60;;;;;;5035711;28;20151;-59
2022/11/16 07:11:09;;;;;;;1.58;0.63;;;20.00;50.50;;;;;;5035367;28;20044;-59
2022/11/16 07:13:36;;;;;;;1.38;0.70;;;20.00;50.50;;;;;;5036734;28;20033;-60
2022/11/16 07:16:05;;;;;;;2.17;0.75;;;20.00;50.50;;;;;;5037927;28;20453;-60
2022/11/16 07:18:36;;;;;;;0.80;0.60;;;20.00;50.40;;;;;;5056319;28;20482;-60
2022/11/16 07:21:10;;;;;;;0.60;0.40;;;19.90;50.30;;;;;;5038870;28;20407;-59
2022/11/16 07:23:37;;;;;;;0.65;0.43;;;19.90;50.20;;;;;;5022407;28;20035;-58
2022/11/16 07:26:06;;;;;;;1.48;0.50;;;20.00;50.20;;;;;;5039078;28;20067;-60
2022/11/16 07:28:41;;;;;;;1.65;0.68;;;20.00;50.20;;;;;;5038546;28;20037;-59
2022/11/16 07:31:09;;;;;;;0.82;0.40;;;19.90;50.00;;;;;;5039146;28;20036;-60
2022/11/16 07:33:36;;;;;;;1.38;0.60;;;19.90;50.00;;;;;;5039031;28;20102;-59
2022/11/16 07:36:20;;;;;;;1.80;0.70;;;19.90;49.90;;;;;;5056736;28;20110;-60
2022/11/16 07:38:46;;;;;;;1.25;0.60;;;19.90;49.80;;;;;;5038620;28;20039;-59
2022/11/16 07:41:17;;;;;;;1.70;0.60;;;20.00;49.80;;;;;;5038679;28;20071;-57
2022/11/16 07:43:50;;;;;;;1.40;0.57;;;20.00;49.80;;;;;;5038667;28;20063;-55
2022/11/16 07:46:20;;;;;;;1.08;0.60;;;20.00;49.70;;;;;;5056358;28;20500;-59
2022/11/16 07:48:46;;;;;;;1.75;0.73;;;20.00;49.70;;;;;;5021816;28;20033;-59
2022/11/16 07:51:16;;;;;;;1.48;0.60;;;20.00;49.70;;;;;;5055583;28;20037;-58
2022/11/16 07:53:54;;;;;;;2.47;0.90;;;20.00;49.70;;;;;;5038058;28;20372;-59
2022/11/16 07:56:21;;;;;;;2.42;0.70;;;20.00;49.60;;;;;;5038283;28;20522;-54
2022/11/16 07:58:48;;;;;;;1.98;0.70;;;20.00;49.60;;;;;;5038347;28;20459;-58
2022/11/16 08:01:16;;;;;;;2.13;0.88;;;20.00;49.60;;;;;;5037709;28;20036;-59
2022/11/16 08:03:45;;;;;;;1.40;0.60;;;20.00;49.50;;;;;;5038232;28;20436;-56
2022/11/16 08:06:15;;;;;;;1.75;0.65;;;20.00;49.50;;;;;;5038285;28;20436;-56
2022/11/16 08:08:42;;;;;;;1.45;0.80;;;20.00;49.50;;;;;;5037884;28;20029;-56
2022/11/16 08:11:10;;;;;;;1.70;0.80;;;20.00;49.50;;;;;;5037805;28;20058;-60
2022/11/16 08:13:37;;;;;;;3.03;0.73;;;20.00;49.50;;;;;;5055173;28;20468;-59
2022/11/16 08:16:12;;;;;;;1.45;0.77;;;20.00;49.40;;;;;;5021931;28;20364;-56
2022/11/16 08:18:38;;;;;;;1.23;0.60;;;20.00;49.50;;;;;;5037926;28;20478;-61
2022/11/16 08:21:05;;;;;;;1.15;0.60;;;20.00;49.50;;;;;;5022041;28;20383;-60
2022/11/16 08:23:32;;;;;;;2.30;0.80;;;20.00;49.50;;;;;;5055372;28;20029;-58
2022/11/16 08:25:59;;;;;;;1.15;0.60;;;20.00;49.50;;;;;;5038069;28;20033;-56
2022/11/16 08:28:29;;;;;;;2.72;0.80;;;20.00;49.40;;;;;;5037669;28;20041;-57
2022/11/16 08:30:55;;;;;;;2.92;0.95;;;20.00;49.40;;;;;;5038206;28;20029;-59
2022/11/16 08:33:23;;;;;;;2.15;0.90;;;20.00;49.40;;;;;;5037596;28;20083;-59
2022/11/16 08:35:53;;;;;;;1.55;0.80;;;20.00;49.50;;;;;;5055162;28;20096;-58
2022/11/16 08:38:19;;;;;;;1.42;0.70;;;20.00;49.40;;;;;;5037660;28;20041;-60
2022/11/16 08:40:46;;;;;;;2.58;0.82;;;20.00;49.40;;;;;;5054999;28;20334;-59
2022/11/16 08:43:12;;;;;;;2.60;0.80;;;20.00;49.40;;;;;;5037477;28;20111;-57
2022/11/16 08:45:38;;;;;;;1.85;0.70;;;20.00;49.40;;;;;;5037653;28;20060;-57
2022/11/16 08:48:05;;;;;;;2.03;0.88;;;20.00;49.40;;;;;;5037386;28;20029;-58
2022/11/16 08:50:33;;;;;;;1.45;0.73;;;20.00;49.40;;;;;;5037275;28;20045;-59
2022/11/16 08:52:59;;;;;;;1.90;0.80;;;20.00;49.30;;;;;;5037111;28;20080;-59
2022/11/16 08:55:26;;;;;;;1.15;0.55;;;20.10;49.40;;;;;;5037342;28;20440;-59
2022/11/16 08:57:51;;;;;;;2.97;0.82;;;20.00;49.30;;;;;;5037373;28;20047;-58
2022/11/16 09:00:18;;;;;;;1.63;0.70;;;20.10;49.30;;;;;;5037278;28;20041;-59
2022/11/16 09:02:44;;;;;;;3.00;1.20;;;20.10;49.30;;;;;;5054407;28;20449;-58
2022/11/16 09:05:10;;;;;;;2.10;0.85;;;20.10;49.20;;;;;;5037015;28;20033;-58
2022/11/16 09:07:42;;;;;;;2.60;0.80;;;20.10;49.20;;;;;;5037324;28;20033;-58
2022/11/16 09:10:08;;;;;;;3.22;1.13;;;20.10;49.10;;;;;;5037183;28;20086;-57
2022/11/16 09:12:35;;;;;;;2.33;1.08;;;20.10;49.10;;;;;;5054792;28;20048;-60
2022/11/16 09:15:01;;;;;;;1.50;0.80;;;20.10;49.10;;;;;;5054801;28;20407;-58
2022/11/16 09:17:27;;;;;;;2.47;0.70;;;20.10;49.10;;;;;;5054673;28;20106;-59
2022/11/16 09:19:53;;;;;;;1.65;0.80;;;20.10;49.00;;;;;;5054807;28;20037;-60
2022/11/16 09:22:19;;;;;;;4.68;1.25;;;20.10;49.00;;;;;;5037199;28;20452;-59
2022/11/16 09:24:44;;;;;;;2.03;1.02;;;20.10;49.00;;;;;;5054938;28;20025;-59
2022/11/16 09:27:13;;;;;;;2.63;1.35;;;20.10;48.90;;;;;;5054614;28;20064;-57
2022/11/16 09:29:39;;;;;;;1.92;0.77;;;20.10;48.80;;;;;;5054622;28;20064;-57
2022/11/16 09:32:05;;;;;;;1.77;0.77;;;20.10;48.70;;;;;;5054918;28;20025;-57
2022/11/16 09:34:33;;;;;;;3.35;1.13;;;20.10;48.70;;;;;;5037034;28;20471;-57
2022/11/16 09:37:00;;;;;;;2.70;0.82;;;20.10;48.60;;;;;;5054069;28;20036;-58
2022/11/16 09:39:26;;;;;;;3.25;0.80;;;20.10;48.60;;;;;;5055557;28;20360;-59
2022/11/16 09:42:08;;;;;;;2.78;0.80;;;20.10;48.50;;;;;;5037211;28;20037;-58
2022/11/16 09:44:54;;;;;;;1.85;0.80;;;20.10;48.50;;;;;;5054020;28;20103;-59
2022/11/16 09:47:23;;;;;;;2.28;0.80;;;20.10;48.40;;;;;;5054529;28;20380;-59
2022/11/16 09:49:54;;;;;;;1.90;0.85;;;20.10;48.40;;;;;;5036366;28;20112;-57
2022/11/16 09:52:29;;;;;;;2.20;0.75;;;20.10;48.40;;;;;;5054275;28;20341;-59
2022/11/16 09:54:58;;;;;;;3.35;1.15;;;20.10;48.30;;;;;;5054469;28;20033;-60
2022/11/16 09:57:30;;;;;;;1.63;0.70;;;20.10;48.30;;;;;;5054485;28;20393;-58
2022/11/16 10:00:03;;;;;;;3.47;0.98;;;20.10;48.80;;;;;;5054795;28;20138;-59
2022/11/16 10:02:45;;;;;;;2.03;0.93;;;20.20;48.20;;;;;;5054003;28;20072;-59
2022/11/16 10:05:26;;;;;;;2.53;0.77;;;20.20;48.10;;;;;;5036510;28;20033;-59
2022/11/16 10:08:09;;;;;;;2.88;0.80;;;20.20;48.10;;;;;;5054089;28;20029;-59
2022/11/16 10:10:56;;;;;;;1.98;0.85;;;20.20;48.00;;;;;;5054042;28;20040;-60
2022/11/16 10:13:43;;;;;;;3.05;0.80;;;20.20;48.00;;;;;;5054290;28;20123;-59
2022/11/16 10:16:17;;;;;;;2.47;0.90;;;20.20;47.90;;;;;;5055947;28;20040;-59
2022/11/16 10:18:55;;;;;;;1.92;0.80;;;20.20;47.90;;;;;;5040291;28;20029;-58
2022/11/16 10:21:38;;;;;;;5.25;1.33;;;20.20;47.80;;;;;;5057703;28;20472;-60
2022/11/16 10:24:17;;;;;;;1.98;0.75;;;20.20;47.70;;;;;;5040094;28;20033;-60
2022/11/16 10:26:58;;;;;;;1.83;0.60;;;20.20;47.70;;;;;;5040579;28;20445;-59
2022/11/16 10:29:44;;;;;;;2.95;0.77;;;20.20;47.70;;;;;;5057175;28;20029;-60
2022/11/16 10:32:16;;;;;;;2.10;0.77;;;20.20;47.60;;;;;;5057951;28;20348;-60
2022/11/16 10:34:53;;;;;;;2.00;0.70;;;20.20;47.60;;;;;;5057748;28;20048;-59
2022/11/16 10:37:20;;;;;;;2.75;0.75;;;20.20;47.60;;;;;;5057364;28;20044;-59
2022/11/16 10:39:48;;;;;;;2.60;0.75;;;20.20;47.60;;;;;;5057152;28;20029;-58
2022/11/16 10:42:26;;;;;;;1.83;0.73;;;20.20;47.50;;;;;;5057236;28;20037;-56
2022/11/16 10:44:56;;;;;;;2.17;0.73;;;20.20;47.50;;;;;;5057431;28;20033;-57
2022/11/16 10:47:35;;;;;;;2.55;0.80;;;20.20;47.50;;;;;;5057249;28;20037;-59
2022/11/16 10:50:16;;;;;;;2.22;0.80;;;20.20;47.40;;;;;;5057283;28;20033;-60
2022/11/16 10:52:42;;;;;;;2.50;1.00;;;20.30;47.40;;;;;;5056880;28;20035;-59
2022/11/16 10:55:14;;;;;;;3.35;1.10;;;20.20;47.30;;;;;;5056992;28;20025;-60
2022/11/16 10:58:02;;;;;;;3.38;1.02;;;20.30;47.30;;;;;;5056941;28;20040;-59
2022/11/16 11:00:36;;;;;;;2.60;0.90;;;20.30;47.30;;;;;;5023941;28;20029;-59
2022/11/16 11:03:02;;;;;;;2.17;0.70;;;20.20;47.20;;;;;;5056699;28;20040;-55
2022/11/16 11:05:28;;;;;;;2.70;0.80;;;20.30;47.30;;;;;;5056946;28;20032;-59
2022/11/16 11:08:04;;;;;;;3.38;0.63;;;20.30;47.20;;;;;;5056762;28;20025;-58
2022/11/16 11:10:35;;;;;;;2.03;0.63;;;20.30;47.20;;;;;;5056545;28;20029;-59
2022/11/16 11:13:07;;;;;;;2.88;0.80;;;20.30;47.20;;;;;;5056681;28;20171;-58
2022/11/16 11:15:33;;;;;;;1.58;0.57;;;20.30;47.20;;;;;;5056966;28;20037;-59
2022/11/16 11:18:22;;;;;;;1.80;0.82;;;20.30;47.10;;;;;;5035238;28;20155;-58
2022/11/16 11:20:51;;;;;;;2.03;0.70;;;20.30;47.10;;;;;;5036757;28;20033;-56
2022/11/16 11:23:20;;;;;;;2.92;1.27;;;20.30;47.00;;;;;;5037033;28;20421;-59
2022/11/16 11:25:58;;;;;;;3.45;1.10;;;20.30;47.00;;;;;;5036030;28;20037;-53
2022/11/16 11:28:27;;;;;;;2.08;0.70;;;20.30;47.00;;;;;;5036665;28;20022;-59
2022/11/16 11:31:21;;;;;;;3.58;0.90;;;20.30;47.00;;;;;;5037070;28;20033;-58
2022/11/16 11:33:53;;;;;;;2.92;1.08;;;20.30;46.90;;;;;;5036630;28;20029;-57
2022/11/16 11:36:34;;;;;;;2.90;0.98;;;20.30;46.80;;;;;;5019644;28;20045;-59
2022/11/16 11:39:02;;;;;;;2.55;1.20;;;20.40;46.80;;;;;;5036198;28;20030;-58
2022/11/16 11:41:36;;;;;;;2.05;0.95;;;20.30;46.70;;;;;;5035179;28;20102;-58
2022/11/16 11:44:12;;;;;;;3.50;1.30;;;20.40;46.70;;;;;;5036548;28;20099;-60
2022/11/16 11:46:43;;;;;;;2.03;0.90;;;20.40;46.60;;;;;;5018528;28;20041;-59
2022/11/16 11:49:12;;;;;;;2.80;0.80;;;20.40;46.60;;;;;;5036204;28;20108;-55
2022/11/16 11:51:41;;;;;;;2.80;1.27;;;20.40;46.60;;;;;;5034932;28;20034;-59
2022/11/16 11:54:21;;;;;;;3.00;0.93;;;20.40;46.60;;;;;;5035392;28;20037;-60
2022/11/16 11:56:47;;;;;;;1.45;0.70;;;20.40;46.50;;;;;;5036035;28;20084;-57
2022/11/16 11:59:18;;;;;;;2.75;0.98;;;20.40;46.50;;;;;;5034844;28;20045;-59
2022/11/16 12:02:15;;;;;;;2.20;0.90;;;20.40;46.40;;;;;;5034876;28;20416;-59
2022/11/16 12:05:18;;;;;;;2.92;0.90;;;20.40;46.40;;;;;;5035541;28;20050;-58
2022/11/16 12:08:16;;;;;;;2.45;0.80;;;20.40;46.30;;;;;;5036076;28;20029;-54
2022/11/16 12:10:50;;;;;;;2.17;0.80;;;20.40;46.30;;;;;;5034893;28;20034;-59
2022/11/16 12:13:42;;;;;;;2.92;1.08;;;20.40;46.30;;;;;;5035953;28;20038;-58
2022/11/16 12:16:32;;;;;;;3.03;1.08;;;20.40;46.20;;;;;;5020649;28;20052;-57
2022/11/16 12:19:03;;;;;;;2.63;0.95;;;20.40;46.20;;;;;;5055515;28;20059;-59
2022/11/16 12:21:58;;;;;;;2.35;0.93;;;20.40;46.20;;;;;;5055502;28;20399;-57
2022/11/16 12:24:55;;;;;;;2.10;0.90;;;20.40;46.70;;;;;;5018463;28;20083;-58
2022/11/16 12:27:25;;;;;;;2.17;1.02;;;20.40;46.00;;;;;;5055318;28;20077;-57
2022/11/16 12:30:06;;;;;;;3.83;0.98;;;20.40;45.90;;;;;;5037861;28;20033;-59
2022/11/16 12:32:59;;;;;;;2.00;0.90;;;20.40;46.00;;;;;;5055160;28;20036;-58
2022/11/16 12:35:41;;;;;;;3.00;0.95;;;20.40;46.60;;;;;;5055155;28;20033;-59
2022/11/16 12:38:36;;;;;;;1.30;0.70;;;20.40;45.90;;;;;;5054995;28;20102;-55
2022/11/16 12:41:05;;;;;;;2.10;0.70;;;20.40;45.90;;;;;;5037742;28;20124;-57
2022/11/16 12:43:51;;;;;;;2.40;0.90;;;20.40;45.90;;;;;;5054791;28;20126;-59
2022/11/16 12:46:50;;;;;;;2.88;1.05;;;20.40;45.90;;;;;;5054793;28;20033;-60
2022/11/16 12:50:09;;;;;;;3.00;0.70;;;20.40;45.90;;;;;;5037743;28;20061;-57
2022/11/16 12:53:19;;;;;;;2.30;0.90;;;20.50;46.00;;;;;;5024243;28;20045;-57
2022/11/16 12:55:53;;;;;;;1.45;0.70;;;20.40;45.90;;;;;;4974040;28;20101;-60
2022/11/16 12:58:47;;;;;;;2.42;0.93;;;20.50;46.00;;;;;;5014096;28;20106;-59
2022/11/16 13:01:18;;;;;;;3.00;1.00;;;20.50;45.90;;;;;;5054865;28;20178;-58
2022/11/16 13:03:59;;;;;;;1.92;0.60;;;20.50;45.80;;;;;;5037210;28;20072;-58
2022/11/16 13:06:32;;;;;;;1.88;0.75;;;20.50;45.80;;;;;;5054745;28;20503;-59
2022/11/16 13:09:09;;;;;;;1.48;0.60;;;20.40;45.80;;;;;;5037210;28;20044;-56
2022/11/16 13:11:57;;;;;;;2.15;0.70;;;20.50;46.40;;;;;;5055052;28;20067;-57
2022/11/16 13:14:37;;;;;;;2.25;0.77;;;20.50;45.80;;;;;;5055062;28;20051;-58
2022/11/16 13:17:05;;;;;;;1.58;0.50;;;20.50;45.70;;;;;;5037213;28;20053;-55
2022/11/16 13:19:34;;;;;;;2.00;0.77;;;20.50;45.60;;;;;;5054243;28;20077;-58
2022/11/16 13:22:21;;;;;;;6.43;0.93;;;20.50;45.60;;;;;;5054349;28;20472;-58
2022/11/16 13:25:14;;;;;;;1.45;0.60;;;20.50;45.60;;;;;;5054595;28;20029;-55
2022/11/16 13:27:48;;;;;;;3.15;1.13;;;20.50;45.60;;;;;;5054301;28;20460;-59
2022/11/16 13:30:23;;;;;;;2.55;1.13;;;20.50;45.60;;;;;;5054600;28;20032;-60
2022/11/16 13:33:16;;;;;;;2.38;0.80;;;20.50;45.50;;;;;;5054614;28;20036;-59
2022/11/16 13:35:42;;;;;;;1.70;0.70;;;20.50;45.60;;;;;;5054836;28;20091;-58
2022/11/16 13:38:12;;;;;;;3.03;1.00;;;20.50;45.50;;;;;;5037114;28;20348;-58
2022/11/16 13:40:38;;;;;;;1.25;0.60;;;20.50;45.50;;;;;;5054682;28;20033;-58
2022/11/16 13:43:09;;;;;;;2.45;0.82;;;20.50;45.50;;;;;;5037257;28;20405;-57
2022/11/16 13:45:53;;;;;;;2.95;1.15;;;20.50;45.40;;;;;;5054579;28;20028;-59
2022/11/16 13:48:24;;;;;;;1.35;0.65;;;20.50;45.40;;;;;;5036752;28;20437;-58
2022/11/16 13:50:55;;;;;;;2.65;1.25;;;20.50;45.20;;;;;;5057421;28;20087;-56
2022/11/16 13:53:27;;;;;;;2.15;0.60;;;20.50;45.20;;;;;;5058458;28;20029;-58